Time;durP1;ratioP1;P1;durP2;ratioP2;P2;SDS_P1;SDS_P2;PMS_P1;PMS_P2;Temp;Humidity;BMP_temperature;BMP_pressure;BME280_temperature;BME280_humidity;BME280_pressure;Samples;Min_cycle;Max_cycle;Signal;HPM_P1;HPM_P2
2022/06/20 00:00:27;;;;;;;0.40;0.30;;;22.60;50.90;;;;;;6195882;28;20076;-74
2022/06/20 00:03:35;;;;;;;0.65;0.40;;;22.60;50.90;;;;;;6195561;28;20058;-74
2022/06/20 00:06:38;;;;;;;0.98;0.40;;;22.60;51.00;;;;;;6121689;29;20129;-74
2022/06/20 00:09:39;;;;;;;0.63;0.35;;;22.60;50.90;;;;;;6143825;28;20112;-74
2022/06/20 00:12:41;;;;;;;0.52;0.40;;;22.60;51.00;;;;;;6143810;29;20031;-73
2022/06/20 00:15:42;;;;;;;0.70;0.40;;;22.60;51.00;;;;;;6144435;29;20035;-74
2022/06/20 00:18:43;;;;;;;0.65;0.40;;;22.60;51.00;;;;;;6143899;29;20034;-73
2022/06/20 00:21:44;;;;;;;0.88;0.50;;;22.60;51.00;;;;;;6143646;29;20039;-74
2022/06/20 00:24:45;;;;;;;1.30;0.60;;;22.60;51.00;;;;;;6143593;29;20465;-74
2022/06/20 00:27:46;;;;;;;1.30;0.60;;;22.60;51.00;;;;;;6143747;29;20594;-74
2022/06/20 00:30:47;;;;;;;0.88;0.50;;;22.60;51.00;;;;;;6143431;29;20525;-74
2022/06/20 00:33:48;;;;;;;1.05;0.40;;;22.60;51.10;;;;;;6143886;29;20035;-73
2022/06/20 00:36:49;;;;;;;0.35;0.30;;;22.60;51.10;;;;;;6160952;28;20061;-74
2022/06/20 00:39:50;;;;;;;0.50;0.40;;;22.60;51.10;;;;;;6217772;28;20038;-74
2022/06/20 00:42:52;;;;;;;0.55;0.40;;;22.60;51.20;;;;;;6209166;28;20027;-74
2022/06/20 00:45:57;;;;;;;0.60;0.40;;;22.60;51.10;;;;;;6194772;28;20572;-73
2022/06/20 00:49:16;;;;;;;;;;;22.60;51.20;;;;;;6210103;28;20057;-74
2022/06/20 00:52:27;;;;;;;1.05;0.60;;;22.60;51.20;;;;;;6218077;28;20305;-74
2022/06/20 00:55:44;;;;;;;1.60;0.40;;;22.60;51.20;;;;;;6194886;28;20026;-74
2022/06/20 00:58:50;;;;;;;0.50;0.40;;;22.60;51.20;;;;;;6206784;28;20061;-73
2022/06/20 01:01:52;;;;;;;0.38;0.38;;;22.60;51.20;;;;;;6218320;28;20538;-74
2022/06/20 01:04:59;;;;;;;0.40;0.30;;;22.60;51.20;;;;;;6197966;28;20026;-74
2022/06/20 01:08:24;;;;;;;1.00;0.45;;;22.60;51.20;;;;;;6198403;28;20025;-73
2022/06/20 01:11:34;;;;;;;0.40;0.40;;;22.60;51.20;;;;;;6218733;28;20488;-73
2022/06/20 01:14:38;;;;;;;0.68;0.40;;;22.60;51.20;;;;;;6201959;28;20026;-73
2022/06/20 01:17:39;;;;;;;0.40;0.28;;;22.60;51.20;;;;;;6194587;28;20037;-74
2022/06/20 01:20:40;;;;;;;0.50;0.30;;;22.60;51.30;;;;;;6218112;28;20500;-74
2022/06/20 01:24:23;;;;;;;5.10;0.55;;;22.60;51.20;;;;;;6210038;28;20112;-74
2022/06/20 01:27:35;;;;;;;0.40;0.40;;;22.60;51.20;;;;;;6193899;28;20060;-74
2022/06/20 01:30:40;;;;;;;0.63;0.35;;;22.60;51.30;;;;;;6193728;28;20022;-73
2022/06/20 01:33:41;;;;;;;0.30;0.30;;;22.60;51.30;;;;;;6194297;28;20019;-74
2022/06/20 01:40:09;;;;;;;1.63;0.70;;;22.60;51.30;;;;;;6211488;28;20046;-74
2022/06/20 01:43:09;;;;;;;0.60;0.43;;;22.60;51.30;;;;;;6214715;28;20432;-73
2022/06/20 01:46:12;;;;;;;0.35;0.30;;;22.60;51.30;;;;;;6190659;28;20046;-73
2022/06/20 01:49:19;;;;;;;0.77;0.30;;;22.60;51.30;;;;;;6202546;28;20389;-73
2022/06/20 01:52:26;;;;;;;0.43;0.40;;;22.60;51.30;;;;;;6218200;28;20026;-73
2022/06/20 01:55:26;;;;;;;0.43;0.40;;;22.60;51.40;;;;;;6211716;28;20029;-74
2022/06/20 01:58:46;;;;;;;0.30;0.30;;;22.60;51.40;;;;;;6217996;28;20026;-73
2022/06/20 02:01:48;;;;;;;1.02;0.50;;;22.60;51.40;;;;;;6218206;28;20109;-73
2022/06/20 02:04:50;;;;;;;0.47;0.40;;;22.50;51.30;;;;;;6206341;28;20026;-74
2022/06/20 02:07:51;;;;;;;0.52;0.35;;;22.50;51.30;;;;;;6193653;28;20042;-73
2022/06/20 02:10:59;;;;;;;0.68;0.50;;;22.60;51.40;;;;;;6195268;28;20030;-74
2022/06/20 02:14:29;;;;;;;0.20;0.20;;;22.60;51.40;;;;;;6214138;28;20452;-74
2022/06/20 02:17:34;;;;;;;1.23;0.43;;;22.50;51.30;;;;;;6171992;28;20035;-74
2022/06/20 02:20:48;;;;;;;0.50;0.30;;;22.60;51.50;;;;;;6209400;28;20022;-73
2022/06/20 02:23:53;;;;;;;0.47;0.40;;;22.50;51.40;;;;;;6216364;28;20081;-73
2022/06/20 02:26:56;;;;;;;;;;;22.60;51.50;;;;;;6194222;28;20038;-73
2022/06/20 02:29:59;;;;;;;1.13;0.52;;;22.60;51.50;;;;;;6201864;28;19905;-73
2022/06/20 02:33:11;;;;;;;0.30;0.30;;;22.60;52.20;;;;;;6220708;28;20060;-73
2022/06/20 02:36:12;;;;;;;0.40;0.30;;;22.60;51.50;;;;;;6203419;28;20038;-73
2022/06/20 02:39:13;;;;;;;0.40;0.30;;;22.60;51.50;;;;;;6197404;28;20089;-73
2022/06/20 02:42:21;;;;;;;0.57;0.40;;;22.50;51.40;;;;;;6197412;28;20026;-73
2022/06/20 02:45:23;;;;;;;0.52;0.35;;;22.50;51.40;;;;;;6207757;28;20025;-73
2022/06/20 02:48:27;;;;;;;0.35;0.30;;;22.50;51.50;;;;;;6222046;28;20029;-73
2022/06/20 02:51:35;;;;;;;0.47;0.40;;;22.50;51.40;;;;;;6202640;28;20073;-74
2022/06/20 02:54:37;;;;;;;0.52;0.50;;;22.60;52.20;;;;;;6212224;28;20054;-73
2022/06/20 02:57:42;;;;;;;1.10;0.40;;;22.50;51.50;;;;;;6197595;28;20511;-74
2022/06/20 03:00:52;;;;;;;0.30;0.30;;;22.50;51.50;;;;;;6209014;28;20025;-73
2022/06/20 03:03:57;;;;;;;0.47;0.35;;;22.50;51.50;;;;;;6221804;28;20026;-73
2022/06/20 03:07:06;;;;;;;0.50;0.40;;;22.50;51.50;;;;;;6220768;28;20121;-73
2022/06/20 03:10:20;;;;;;;0.45;0.30;;;22.50;51.50;;;;;;6216361;28;20073;-74
2022/06/20 03:13:22;;;;;;;0.50;0.40;;;22.50;51.50;;;;;;6196951;28;20058;-74
2022/06/20 03:16:23;;;;;;;0.60;0.40;;;22.50;51.50;;;;;;6211580;28;20481;-74
2022/06/20 03:19:27;;;;;;;0.55;0.30;;;22.50;51.50;;;;;;6221419;28;20037;-74
2022/06/20 03:22:35;;;;;;;0.65;0.30;;;22.50;52.10;;;;;;6197646;28;20030;-73
2022/06/20 03:25:40;;;;;;;0.20;0.20;;;22.50;50.20;;;;;;6203326;28;20113;-74
2022/06/20 03:28:41;;;;;;;;;;;22.50;49.70;;;;;;6221122;28;20137;-74
2022/06/20 03:31:42;;;;;;;0.30;0.30;;;22.70;49.20;;;;;;6205436;28;19910;-74
2022/06/20 03:34:43;;;;;;;0.55;0.30;;;22.80;48.70;;;;;;6196553;28;20443;-74
2022/06/20 03:37:44;;;;;;;0.35;0.30;;;22.90;48.40;;;;;;6194967;28;20587;-74
2022/06/20 03:40:46;;;;;;;0.45;0.30;;;23.00;48.00;;;;;;6202334;28;20049;-74
2022/06/20 03:43:51;;;;;;;1.27;0.50;;;23.10;47.90;;;;;;6219946;28;20029;-74
2022/06/20 03:47:23;;;;;;;0.63;0.52;;;23.10;47.60;;;;;;6205700;28;20370;-73
2022/06/20 03:50:37;;;;;;;1.13;0.40;;;23.20;47.50;;;;;;6185258;28;20038;-74
2022/06/20 03:53:46;;;;;;;0.20;0.20;;;23.30;47.40;;;;;;6220006;28;20033;-73
2022/06/20 03:56:54;;;;;;;0.40;0.38;;;23.30;47.20;;;;;;6207732;28;20031;-74
2022/06/20 04:00:11;;;;;;;0.32;0.30;;;23.30;47.10;;;;;;6192905;28;20146;-74
2022/06/20 04:03:36;;;;;;;0.30;0.30;;;23.30;47.00;;;;;;6178497;28;20030;-74
2022/06/20 04:07:06;;;;;;;0.40;0.40;;;23.40;46.90;;;;;;6205334;28;20112;-74
2022/06/20 04:14:01;;;;;;;0.20;0.20;;;23.30;46.80;;;;;;6195831;28;20030;-74
2022/06/20 04:20:51;;;;;;;0.77;0.40;;;23.40;46.60;;;;;;6219436;28;20120;-74
2022/06/20 04:24:16;;;;;;;0.40;0.30;;;23.40;46.50;;;;;;6195143;28;20422;-74
2022/06/20 04:27:38;;;;;;;0.43;0.30;;;23.40;46.40;;;;;;6207691;28;20034;-74
2022/06/20 04:30:52;;;;;;;0.30;0.30;;;23.50;46.40;;;;;;6214611;28;20034;-74
2022/06/20 04:34:13;;;;;;;0.75;0.38;;;23.40;46.40;;;;;;6195500;28;20428;-74
2022/06/20 04:37:40;;;;;;;0.40;0.40;;;23.40;46.30;;;;;;6199766;28;20374;-74
2022/06/20 04:40:49;;;;;;;0.40;0.40;;;23.40;47.00;;;;;;6177265;28;20022;-74
2022/06/20 04:44:03;;;;;;;0.28;0.28;;;23.40;46.10;;;;;;6200768;28;20030;-74
2022/06/20 04:47:25;;;;;;;0.55;0.38;;;23.50;46.20;;;;;;6210970;28;20518;-74
2022/06/20 04:50:28;;;;;;;0.30;0.28;;;23.50;46.20;;;;;;6194912;28;20492;-74
2022/06/20 04:53:38;;;;;;;0.28;0.28;;;23.50;46.00;;;;;;6213389;28;20030;-73
2022/06/20 04:56:40;;;;;;;0.38;0.25;;;23.50;46.00;;;;;;6212261;28;20022;-74
2022/06/20 05:00:34;;;;;;;0.68;0.30;;;23.50;46.00;;;;;;6191181;28;20663;-74
2022/06/20 05:03:40;;;;;;;0.50;0.30;;;23.50;46.00;;;;;;6213365;28;20044;-73
2022/06/20 05:06:41;;;;;;;0.28;0.28;;;23.50;45.80;;;;;;6216288;28;20034;-74
2022/06/20 05:10:19;;;;;;;0.32;0.32;;;23.50;45.70;;;;;;6194628;28;20023;-74
2022/06/20 05:13:27;;;;;;;0.50;0.40;;;23.50;45.80;;;;;;6209169;28;20022;-74
2022/06/20 05:16:31;;;;;;;0.57;0.30;;;23.50;45.80;;;;;;6218685;28;20477;-74
2022/06/20 05:19:43;;;;;;;0.47;0.30;;;23.50;45.70;;;;;;6194672;28;20481;-74
2022/06/20 05:22:53;;;;;;;0.38;0.38;;;23.50;45.80;;;;;;6202616;28;20030;-74
2022/06/20 05:25:55;;;;;;;1.05;0.45;;;23.50;45.80;;;;;;6218431;28;20125;-73
2022/06/20 05:28:58;;;;;;;0.52;0.32;;;23.50;45.60;;;;;;6200625;28;20023;-74
2022/06/20 05:32:02;;;;;;;0.40;0.40;;;23.50;45.70;;;;;;6194853;28;20026;-74
2022/06/20 05:35:20;;;;;;;5.80;0.47;;;23.50;45.60;;;;;;6218869;28;20030;-74
2022/06/20 05:38:41;;;;;;;0.40;0.25;;;23.50;45.60;;;;;;6188780;28;20340;-74
2022/06/20 05:41:42;;;;;;;0.30;0.30;;;23.50;45.60;;;;;;6194325;28;20327;-73
2022/06/20 05:44:43;;;;;;;0.50;0.40;;;23.50;45.60;;;;;;6214009;28;20102;-74
2022/06/20 05:47:52;;;;;;;1.10;0.50;;;23.50;45.50;;;;;;6210633;28;20053;-74
2022/06/20 05:51:01;;;;;;;0.85;0.40;;;23.50;45.50;;;;;;6194261;28;20038;-73
2022/06/20 05:54:09;;;;;;;0.43;0.32;;;23.50;45.50;;;;;;6209299;28;20052;-74
2022/06/20 05:57:18;;;;;;;0.30;0.30;;;23.50;45.50;;;;;;6217938;28;20508;-74
2022/06/20 06:00:20;;;;;;;0.90;0.57;;;23.50;45.50;;;;;;6200415;28;20100;-74
2022/06/20 06:03:27;;;;;;;1.13;0.40;;;23.50;45.40;;;;;;6220140;28;20030;-74
2022/06/20 06:06:44;;;;;;;0.40;0.40;;;23.50;45.30;;;;;;6221037;28;20455;-74
2022/06/20 06:09:49;;;;;;;0.82;0.40;;;23.60;45.30;;;;;;6206259;28;20037;-74
2022/06/20 06:13:09;;;;;;;1.35;0.57;;;23.60;45.40;;;;;;6203033;28;20033;-74
2022/06/20 06:19:57;;;;;;;0.55;0.28;;;23.50;45.10;;;;;;6208286;28;20662;-73
2022/06/20 06:23:03;;;;;;;0.60;0.50;;;23.50;45.10;;;;;;6202694;28;20084;-74
2022/06/20 06:26:03;;;;;;;0.68;0.40;;;23.50;45.10;;;;;;6224094;28;20397;-74
2022/06/20 06:29:09;;;;;;;0.65;0.32;;;23.60;45.20;;;;;;6209467;28;20026;-73
2022/06/20 06:32:39;;;;;;;2.45;0.30;;;23.60;45.10;;;;;;6221507;28;20068;-74
2022/06/20 06:35:44;;;;;;;2.72;0.30;;;23.60;45.20;;;;;;6195233;28;20094;-74
2022/06/20 06:38:53;;;;;;;0.60;0.50;;;23.60;45.20;;;;;;6204079;28;20092;-74
2022/06/20 06:41:57;;;;;;;0.80;0.32;;;23.60;45.10;;;;;;6199808;28;20125;-74
2022/06/20 06:44:59;;;;;;;0.60;0.40;;;23.60;45.10;;;;;;6208574;28;20105;-74
2022/06/20 06:48:13;;;;;;;1.50;0.50;;;23.60;45.00;;;;;;6198253;28;20092;-74
2022/06/20 06:51:29;;;;;;;0.82;0.47;;;23.60;45.10;;;;;;6198902;28;20023;-74
2022/06/20 06:54:41;;;;;;;0.88;0.40;;;23.60;45.00;;;;;;6209211;28;20022;-74
2022/06/20 06:57:47;;;;;;;0.35;0.35;;;23.60;44.90;;;;;;6189805;28;20030;-74
2022/06/20 07:01:04;;;;;;;1.40;0.43;;;23.60;45.00;;;;;;6222265;28;20022;-74
2022/06/20 07:04:22;;;;;;;0.93;0.50;;;23.50;45.00;;;;;;6208768;28;20026;-74
2022/06/20 07:07:30;;;;;;;0.85;0.45;;;23.50;45.20;;;;;;6175978;28;20129;-74
2022/06/20 07:11:28;;;;;;;1.60;0.68;;;23.40;46.20;;;;;;6214792;28;20392;-75
2022/06/20 07:14:34;;;;;;;0.82;0.40;;;23.20;46.50;;;;;;6136815;28;20394;-74
2022/06/20 07:17:42;;;;;;;3.55;1.65;;;23.10;47.20;;;;;;6145628;28;20086;-74
2022/06/20 07:20:43;;;;;;;0.98;0.52;;;23.10;47.60;;;;;;6204574;28;20022;-74
2022/06/20 07:24:05;;;;;;;0.52;0.40;;;23.10;47.80;;;;;;6217211;28;20060;-74
2022/06/20 07:27:18;;;;;;;1.02;0.60;;;23.10;47.80;;;;;;6221896;28;20168;-74
2022/06/20 07:30:23;;;;;;;1.35;0.55;;;23.10;47.90;;;;;;6209436;28;20022;-75
2022/06/20 07:33:42;;;;;;;1.30;0.70;;;23.10;48.00;;;;;;6197174;28;20022;-75
2022/06/20 07:36:49;;;;;;;0.98;0.57;;;23.00;48.00;;;;;;6220289;28;20041;-74
2022/06/20 07:40:02;;;;;;;0.45;0.40;;;23.00;48.10;;;;;;6194323;28;20088;-75
2022/06/20 07:43:10;;;;;;;0.40;0.30;;;23.00;48.20;;;;;;6221612;28;20033;-74
2022/06/20 07:46:22;;;;;;;0.47;0.40;;;23.00;48.30;;;;;;6182560;28;20190;-75
2022/06/20 07:49:36;;;;;;;2.03;0.60;;;23.00;48.30;;;;;;6199246;28;20045;-74
2022/06/20 07:52:51;;;;;;;1.48;0.60;;;23.00;48.40;;;;;;6218075;28;20160;-75
2022/06/20 07:56:00;;;;;;;0.90;0.70;;;23.00;48.50;;;;;;6203585;28;20528;-74
2022/06/20 07:59:08;;;;;;;1.02;0.63;;;23.00;48.50;;;;;;6220894;28;20040;-74
2022/06/20 08:02:17;;;;;;;0.95;0.65;;;23.00;48.50;;;;;;6180000;28;20080;-74
2022/06/20 08:05:29;;;;;;;1.67;0.50;;;23.00;48.60;;;;;;6204460;28;20385;-74
2022/06/20 08:08:54;;;;;;;2.08;0.60;;;23.00;48.70;;;;;;6220457;28;20097;-74
2022/06/20 08:12:05;;;;;;;0.40;0.40;;;23.00;48.80;;;;;;6201065;28;20474;-74
2022/06/20 08:15:21;;;;;;;0.70;0.50;;;22.90;48.70;;;;;;6201256;28;20030;-74
2022/06/20 08:18:23;;;;;;;1.27;0.57;;;23.00;48.80;;;;;;6220682;28;20412;-74
2022/06/20 08:21:37;;;;;;;0.45;0.40;;;23.00;48.90;;;;;;6203523;28;20105;-74
2022/06/20 08:25:12;;;;;;;0.30;0.30;;;23.00;48.90;;;;;;6216088;28;20040;-74
2022/06/20 08:28:28;;;;;;;0.98;0.57;;;23.00;49.00;;;;;;6196345;28;20039;-74
2022/06/20 08:31:33;;;;;;;1.15;0.40;;;23.00;49.00;;;;;;6207376;28;20042;-74
2022/06/20 08:34:42;;;;;;;1.15;0.75;;;22.90;49.00;;;;;;6202043;28;20037;-74
2022/06/20 08:37:55;;;;;;;0.50;0.50;;;22.90;49.00;;;;;;6217380;28;20057;-74
2022/06/20 08:41:20;;;;;;;1.45;0.50;;;22.90;49.10;;;;;;6213010;28;20186;-74
2022/06/20 08:45:01;;;;;;;0.60;0.47;;;22.90;49.20;;;;;;6195785;28;20049;-74
2022/06/20 08:48:20;;;;;;;1.55;0.70;;;22.90;49.20;;;;;;6219783;28;20365;-75
2022/06/20 08:51:40;;;;;;;0.73;0.50;;;22.90;49.30;;;;;;6210241;28;20033;-74
2022/06/20 08:54:59;;;;;;;0.93;0.40;;;22.90;49.30;;;;;;6214555;28;20029;-74
2022/06/20 08:58:25;;;;;;;0.30;0.30;;;22.90;49.40;;;;;;6199942;28;20025;-73
2022/06/20 09:01:34;;;;;;;0.57;0.47;;;22.90;49.40;;;;;;6220452;28;20026;-73
2022/06/20 09:04:59;;;;;;;0.60;0.50;;;22.90;49.50;;;;;;6219598;28;20492;-73
2022/06/20 09:08:15;;;;;;;0.90;0.60;;;22.90;49.50;;;;;;6197990;28;20121;-73
2022/06/20 09:11:33;;;;;;;;;;;22.90;49.50;;;;;;6202653;28;20499;-73
2022/06/20 09:14:48;;;;;;;0.70;0.50;;;22.90;49.60;;;;;;6219699;28;20502;-74
2022/06/20 09:17:49;;;;;;;;;;;22.90;49.60;;;;;;6201263;28;20030;-74
2022/06/20 09:21:13;;;;;;;1.05;0.40;;;22.90;49.70;;;;;;6197184;28;19960;-74
2022/06/20 09:24:37;;;;;;;0.65;0.47;;;22.90;49.70;;;;;;6218617;28;20041;-73
2022/06/20 09:27:41;;;;;;;0.77;0.50;;;22.90;49.80;;;;;;6219395;28;20587;-74
2022/06/20 09:30:56;;;;;;;0.55;0.50;;;22.90;49.80;;;;;;6219360;28;20041;-73
2022/06/20 09:34:27;;;;;;;0.52;0.43;;;22.90;49.80;;;;;;6197774;28;20085;-73
2022/06/20 09:37:45;;;;;;;1.33;0.60;;;22.90;49.90;;;;;;6207668;28;20041;-74
2022/06/20 09:41:10;;;;;;;0.70;0.47;;;22.90;49.90;;;;;;6219550;28;20101;-74
2022/06/20 09:44:39;;;;;;;0.47;0.38;;;22.90;50.00;;;;;;6200489;28;20030;-74
2022/06/20 09:48:08;;;;;;;0.40;0.40;;;22.90;50.00;;;;;;6213604;28;20069;-74
2022/06/20 09:51:23;;;;;;;0.73;0.40;;;22.90;50.00;;;;;;6207076;28;20042;-74
2022/06/20 09:54:42;;;;;;;1.13;0.50;;;22.90;50.00;;;;;;6225599;28;20349;-74
2022/06/20 09:57:53;;;;;;;0.65;0.40;;;22.90;50.00;;;;;;6208913;28;20041;-73
2022/06/20 10:01:01;;;;;;;0.63;0.50;;;22.90;50.10;;;;;;6199857;28;20054;-74
2022/06/20 10:04:36;;;;;;;0.60;0.50;;;22.90;50.10;;;;;;6199930;28;20425;-73
2022/06/20 10:08:14;;;;;;;0.60;0.50;;;22.90;50.20;;;;;;6209560;28;20065;-73
2022/06/20 10:11:35;;;;;;;1.48;0.50;;;22.90;50.20;;;;;;6224080;28;20044;-73
2022/06/20 10:14:54;;;;;;;0.95;0.65;;;22.90;50.20;;;;;;6199363;28;20053;-73
2022/06/20 10:18:21;;;;;;;0.73;0.70;;;22.90;50.90;;;;;;6210340;28;20033;-73
2022/06/20 10:21:28;;;;;;;3.30;0.80;;;22.90;50.30;;;;;;6223230;28;20447;-73
2022/06/20 10:24:28;;;;;;;0.98;0.90;;;22.90;50.30;;;;;;6223661;28;20033;-74
2022/06/20 10:27:52;;;;;;;2.40;1.27;;;22.90;50.30;;;;;;6216898;28;20041;-73
2022/06/20 10:31:31;;;;;;;1.70;1.08;;;22.90;50.30;;;;;;6188376;28;20508;-73
2022/06/20 10:35:01;;;;;;;3.97;1.52;;;22.90;50.40;;;;;;6219407;28;20045;-74
2022/06/20 10:38:31;;;;;;;2.13;1.20;;;22.90;50.70;;;;;;6205742;28;20050;-73
2022/06/20 10:41:55;;;;;;;1.55;1.08;;;22.90;50.60;;;;;;6223021;28;20097;-73
2022/06/20 10:45:23;;;;;;;2.17;1.15;;;22.90;50.50;;;;;;6198574;28;20465;-73
2022/06/20 10:48:29;;;;;;;2.45;1.02;;;22.90;50.60;;;;;;6209297;28;20137;-73
2022/06/20 10:51:58;;;;;;;2.63;1.10;;;22.90;50.60;;;;;;6222669;28;20488;-74
2022/06/20 10:55:17;;;;;;;1.15;0.82;;;22.90;50.60;;;;;;6220537;28;20052;-73
2022/06/20 10:58:34;;;;;;;1.35;0.82;;;22.90;50.60;;;;;;6213622;28;20034;-74
2022/06/20 11:01:37;;;;;;;1.38;0.73;;;22.90;50.70;;;;;;6198404;28;20089;-74
2022/06/20 11:04:52;;;;;;;2.35;0.90;;;22.90;50.70;;;;;;6216927;28;20030;-73
2022/06/20 11:08:15;;;;;;;1.85;1.05;;;22.90;50.70;;;;;;6221871;28;20076;-73
2022/06/20 11:11:25;;;;;;;1.77;0.80;;;22.80;50.60;;;;;;6222527;28;20053;-73
2022/06/20 11:14:34;;;;;;;1.13;0.77;;;22.90;50.70;;;;;;6206351;28;20505;-73
2022/06/20 11:18:08;;;;;;;1.90;0.90;;;22.90;50.70;;;;;;6198196;28;20018;-73
2022/06/20 11:21:33;;;;;;;1.60;1.00;;;22.80;50.60;;;;;;6220580;28;20042;-74
2022/06/20 11:24:51;;;;;;;1.00;0.70;;;22.90;50.80;;;;;;6213614;28;20490;-73
2022/06/20 11:28:12;;;;;;;1.05;0.80;;;22.90;50.80;;;;;;6220922;28;20089;-73
2022/06/20 11:31:29;;;;;;;1.50;0.80;;;22.80;50.70;;;;;;6197527;28;20109;-74
2022/06/20 11:34:54;;;;;;;0.88;0.68;;;22.80;50.70;;;;;;6210760;28;20033;-73
2022/06/20 11:38:36;;;;;;;0.50;0.50;;;22.90;50.80;;;;;;6221207;28;20141;-73
2022/06/20 11:41:41;;;;;;;1.30;0.85;;;22.80;50.70;;;;;;6221717;28;20489;-73
2022/06/20 11:44:51;;;;;;;1.25;0.80;;;22.80;50.70;;;;;;6221439;28;20014;-73
2022/06/20 11:48:09;;;;;;;1.65;0.90;;;22.80;50.80;;;;;;6221104;28;20038;-73
2022/06/20 11:51:41;;;;;;;0.85;0.65;;;22.80;50.80;;;;;;6197114;28;20438;-73
2022/06/20 11:55:01;;;;;;;0.77;0.60;;;22.80;50.80;;;;;;6196016;28;20184;-73
2022/06/20 11:58:17;;;;;;;0.85;0.70;;;22.80;50.80;;;;;;6221556;28;20032;-73
2022/06/20 12:01:27;;;;;;;1.10;0.73;;;22.80;50.80;;;;;;6196796;28;20060;-73
2022/06/20 12:05:03;;;;;;;1.17;0.93;;;22.80;50.80;;;;;;6195899;28;20034;-73
2022/06/20 12:08:28;;;;;;;1.60;0.65;;;22.80;50.90;;;;;;6187293;28;20056;-73
2022/06/20 12:11:58;;;;;;;1.27;0.80;;;22.80;50.90;;;;;;6196760;28;20050;-73
2022/06/20 12:15:35;;;;;;;0.75;0.60;;;22.80;50.90;;;;;;6209030;28;20041;-73
2022/06/20 12:23:18;;;;;;;1.00;0.60;;;22.80;50.90;;;;;;6217506;28;20022;-73
2022/06/20 12:25:50;;;;;;;0.88;0.63;;;22.80;50.90;;;;;;6220712;28;20030;-73
2022/06/20 12:28:53;;;;;;;0.80;0.80;;;22.80;50.90;;;;;;6219991;28;20030;-73
2022/06/20 12:32:00;;;;;;;1.50;0.80;;;22.80;51.00;;;;;;6206238;28;20462;-73
2022/06/20 12:35:05;;;;;;;0.90;0.68;;;22.80;51.00;;;;;;6205655;28;20496;-73
2022/06/20 12:38:17;;;;;;;1.25;0.80;;;22.80;50.90;;;;;;6208595;28;20078;-73
2022/06/20 12:41:21;;;;;;;0.60;0.55;;;22.80;50.90;;;;;;6196675;28;20034;-73
2022/06/20 12:44:21;;;;;;;1.70;0.80;;;22.80;51.00;;;;;;6216494;28;20073;-73
2022/06/20 12:47:31;;;;;;;0.98;0.70;;;22.80;51.00;;;;;;6194829;28;20420;-73
2022/06/20 12:50:45;;;;;;;0.90;0.70;;;22.70;51.00;;;;;;6207034;28;20097;-73
2022/06/20 12:54:01;;;;;;;1.27;0.75;;;22.70;51.00;;;;;;6205852;28;20038;-73
2022/06/20 12:57:28;;;;;;;0.88;0.60;;;22.70;51.00;;;;;;6217558;28;20041;-73
2022/06/20 13:00:42;;;;;;;1.52;0.80;;;22.70;51.10;;;;;;6208893;28;20022;-73
2022/06/20 13:04:14;;;;;;;0.82;0.50;;;22.70;51.10;;;;;;6194878;28;20354;-73
2022/06/20 13:07:52;;;;;;;0.50;0.40;;;22.70;51.10;;;;;;6217567;28;20041;-73
2022/06/20 13:11:37;;;;;;;0.90;0.65;;;22.70;51.10;;;;;;6206908;28;20057;-73
2022/06/20 13:14:58;;;;;;;0.60;0.50;;;22.70;51.10;;;;;;6119376;29;20036;-73
2022/06/20 13:18:36;;;;;;;0.77;0.52;;;22.70;51.10;;;;;;6122268;28;20039;-74
2022/06/20 13:22:16;;;;;;;0.80;0.57;;;22.70;51.20;;;;;;6207610;28;20080;-72
2022/06/20 13:25:28;;;;;;;0.60;0.50;;;22.70;51.20;;;;;;6206702;28;20034;-73
2022/06/20 13:28:41;;;;;;;0.70;0.50;;;22.70;51.20;;;;;;6207335;28;20022;-72
2022/06/20 13:31:58;;;;;;;4.93;0.85;;;22.80;51.30;;;;;;6215855;28;20432;-73
2022/06/20 13:35:18;;;;;;;3.33;0.80;;;22.80;51.90;;;;;;6215397;28;20485;-73
2022/06/20 13:38:58;;;;;;;2.25;0.80;;;22.80;51.70;;;;;;6216298;28;20045;-73
2022/06/20 13:42:15;;;;;;;0.73;0.60;;;22.90;51.60;;;;;;6103138;29;20032;-73
2022/06/20 13:45:28;;;;;;;0.50;0.50;;;22.90;51.50;;;;;;6112595;28;20181;-73
2022/06/20 13:48:45;;;;;;;1.20;0.57;;;22.90;51.30;;;;;;6214399;28;20021;-74
2022/06/20 13:52:21;;;;;;;0.75;0.43;;;22.90;51.50;;;;;;6217732;28;20513;-74
2022/06/20 13:55:42;;;;;;;2.90;0.60;;;22.90;51.40;;;;;;6126857;28;20041;-73
2022/06/20 13:59:13;;;;;;;1.25;0.70;;;23.00;51.60;;;;;;6184347;28;20030;-74
2022/06/20 14:02:41;;;;;;;0.40;0.40;;;22.90;50.90;;;;;;6202236;28;20026;-73
2022/06/20 14:05:43;;;;;;;1.00;0.65;;;22.80;49.30;;;;;;6216664;28;20030;-73
2022/06/20 14:08:57;;;;;;;0.63;0.50;;;22.90;48.80;;;;;;6217737;28;20026;-73
2022/06/20 14:12:22;;;;;;;0.52;0.47;;;23.00;48.30;;;;;;6205526;28;20015;-73
2022/06/20 14:15:37;;;;;;;0.60;0.50;;;23.10;47.80;;;;;;6193699;28;20050;-73
2022/06/20 14:18:38;;;;;;;;;;;23.20;47.40;;;;;;6196005;28;20509;-74
2022/06/20 14:21:45;;;;;;;0.68;0.40;;;23.30;47.20;;;;;;6185476;28;19910;-74
2022/06/20 14:24:52;;;;;;;0.63;0.50;;;23.40;46.90;;;;;;6218203;28;20029;-73
2022/06/20 14:27:55;;;;;;;0.73;0.50;;;23.40;46.70;;;;;;6218775;28;20037;-74
2022/06/20 14:31:20;;;;;;;0.40;0.40;;;23.50;47.50;;;;;;6203264;28;20032;-73
2022/06/20 14:34:32;;;;;;;0.63;0.43;;;23.50;46.70;;;;;;6198362;28;20027;-73
2022/06/20 14:37:41;;;;;;;0.70;0.43;;;23.50;46.50;;;;;;6210859;28;20049;-74
2022/06/20 14:40:55;;;;;;;0.55;0.47;;;23.50;46.40;;;;;;6222321;28;20018;-74
2022/06/20 14:43:59;;;;;;;0.43;0.30;;;23.60;46.30;;;;;;6197842;28;20030;-73
2022/06/20 14:47:24;;;;;;;0.82;0.50;;;23.60;46.20;;;;;;6205340;28;20034;-73
2022/06/20 14:50:33;;;;;;;0.53;0.40;;;23.60;46.00;;;;;;6222017;28;20036;-73
2022/06/20 14:54:01;;;;;;;0.75;0.30;;;23.60;46.10;;;;;;6201836;28;20587;-73
2022/06/20 14:57:29;;;;;;;0.95;0.50;;;23.60;46.00;;;;;;6197692;28;20060;-74
2022/06/20 15:00:52;;;;;;;0.38;0.35;;;23.60;45.90;;;;;;6197527;28;20026;-74
2022/06/20 15:03:52;;;;;;;0.40;0.40;;;23.60;45.90;;;;;;6197797;28;20061;-74
2022/06/20 15:07:42;;;;;;;1.83;0.35;;;23.60;45.90;;;;;;6201361;28;20030;-74
2022/06/20 15:10:48;;;;;;;0.45;0.43;;;23.60;45.80;;;;;;6195736;28;20116;-73
2022/06/20 15:14:11;;;;;;;0.30;0.30;;;23.60;45.80;;;;;;6201199;28;20023;-73
2022/06/20 15:17:27;;;;;;;0.70;0.50;;;23.60;45.80;;;;;;6201829;28;20026;-74
2022/06/20 15:20:40;;;;;;;0.55;0.40;;;23.60;45.80;;;;;;6221273;28;20118;-73
2022/06/20 15:23:50;;;;;;;0.38;0.38;;;23.60;45.70;;;;;;6219143;28;20056;-73
2022/06/20 15:27:20;;;;;;;0.35;0.30;;;23.70;45.80;;;;;;6219691;28;20030;-74
2022/06/20 15:30:32;;;;;;;0.40;0.40;;;23.60;45.50;;;;;;6188021;28;20045;-74
2022/06/20 15:33:39;;;;;;;0.50;0.40;;;23.70;45.70;;;;;;6196833;28;20069;-74
2022/06/20 15:36:43;;;;;;;0.45;0.45;;;23.60;45.60;;;;;;6197493;28;20018;-73
2022/06/20 15:39:44;;;;;;;1.52;0.50;;;23.60;45.40;;;;;;6196177;28;20497;-74
2022/06/20 15:43:01;;;;;;;2.13;0.40;;;23.60;45.50;;;;;;6214441;28;20030;-74
2022/06/20 15:46:10;;;;;;;0.50;0.43;;;23.60;45.50;;;;;;6196842;28;20027;-74
2022/06/20 15:49:26;;;;;;;0.63;0.35;;;23.70;45.40;;;;;;6213171;28;20030;-74
2022/06/20 15:52:58;;;;;;;0.35;0.30;;;23.70;45.40;;;;;;6218721;28;20033;-73
2022/06/20 15:56:21;;;;;;;8.05;0.52;;;23.70;45.60;;;;;;6220655;28;20026;-72
2022/06/20 15:59:41;;;;;;;7.57;0.50;;;23.80;45.30;;;;;;6202066;28;20084;-72
2022/06/20 16:03:10;;;;;;;5.63;0.50;;;23.80;45.20;;;;;;6199490;28;20026;-72
2022/06/20 16:06:22;;;;;;;2.55;0.57;;;23.80;45.10;;;;;;6220259;28;20477;-73
2022/06/20 16:09:44;;;;;;;1.17;0.43;;;23.80;44.90;;;;;;6203287;28;20023;-72
2022/06/20 16:12:58;;;;;;;1.00;0.45;;;23.80;44.90;;;;;;6197870;28;20124;-72
2022/06/20 16:16:11;;;;;;;1.13;0.30;;;23.80;45.00;;;;;;6217316;28;20153;-73
2022/06/20 16:19:26;;;;;;;6.13;0.40;;;23.80;44.90;;;;;;6202189;28;20057;-72
2022/06/20 16:22:28;;;;;;;0.75;0.45;;;23.80;44.80;;;;;;6199992;28;20116;-73
2022/06/20 16:25:33;;;;;;;2.38;0.52;;;23.80;44.80;;;;;;6218294;28;20136;-73
2022/06/20 16:28:36;;;;;;;0.75;0.40;;;23.80;44.70;;;;;;6216239;28;20038;-72
2022/06/20 16:31:51;;;;;;;0.63;0.38;;;23.80;44.80;;;;;;6218094;28;20022;-73
2022/06/20 16:34:54;;;;;;;0.88;0.50;;;23.80;44.70;;;;;;6217522;28;20112;-73
2022/06/20 16:38:15;;;;;;;1.10;0.57;;;23.80;44.70;;;;;;6216050;28;20092;-73
2022/06/20 16:41:56;;;;;;;0.47;0.40;;;23.80;44.60;;;;;;6193799;28;20033;-72
2022/06/20 16:45:06;;;;;;;0.47;0.40;;;23.80;44.60;;;;;;6209243;28;20366;-73
2022/06/20 16:48:28;;;;;;;0.60;0.30;;;23.80;44.60;;;;;;6216125;28;20507;-73
2022/06/20 16:52:02;;;;;;;1.83;0.63;;;23.80;44.60;;;;;;6192445;28;20046;-72
2022/06/20 16:55:29;;;;;;;1.98;0.70;;;23.80;44.50;;;;;;6200449;28;20323;-73
2022/06/20 16:58:53;;;;;;;0.70;0.35;;;23.80;44.50;;;;;;6189054;28;20029;-72
2022/06/20 17:01:59;;;;;;;0.57;0.40;;;23.80;44.40;;;;;;6208511;28;20076;-73
2022/06/20 17:05:19;;;;;;;0.98;0.52;;;23.70;45.20;;;;;;6209550;28;20393;-73
2022/06/20 17:08:37;;;;;;;0.60;0.38;;;23.50;45.60;;;;;;6214080;28;20056;-73